ADDS METAR Data INFO
IDs: Format: Raw Decoded Include TAF

Data at: 1322 UTC 11 Dec 2017

KGED 111254Z AUTO 22003KT 10SM SCT120 00/M02 A3009 RMK AO2 SLP190 T00001022 $
KGED 111154Z AUTO 00000KT 10SM SCT100 M01/M02 A3007 RMK AO2 SLP183 T10061017 10022 21011 53009 $
KGED 111054Z AUTO 00000KT 10SM BKN110 M01/M02 A3006 RMK AO2 SLP179 T10111022 $
KGED 110954Z AUTO 00000KT 10SM BKN110 02/M02 A3006 RMK AO2 SLP178 T00171017 $
KGED 110854Z AUTO 28003KT 10SM OVC090 02/M01 A3004 RMK AO2 SLP174 T00221011 56007 $
KGED 110754Z AUTO 00000KT 10SM OVC100 02/M01 A3005 RMK AO2 SLP176 T00171011 $
KGED 110654Z AUTO 21003KT 10SM BKN100 01/M02 A3006 RMK AO2 SLP178 T00111017 $
KGED 110554Z AUTO 21005KT 10SM OVC100 01/M02 A3006 RMK AO2 SLP181 T00111017 10017 21017 58009 $
KGED 110454Z AUTO 21005KT 10SM OVC110 01/M02 A3007 RMK AO2 SLP184 T00111017 400441028 $
KGED 110354Z AUTO 20006KT 10SM OVC100 01/M03 A3009 RMK AO2 SLP189 T00061028 $
KGED 110254Z AUTO 21006KT 10SM OVC110 M01/M03 A3009 RMK AO2 SLP190 T10061033 58001 $
KGED 110154Z AUTO 21005KT 10SM CLR M01/M04 A3009 RMK AO2 SLP190 T10061039 $
KGED 110054Z AUTO 21005KT 10SM CLR M01/M04 A3010 RMK AO2 SLP193 T10111044 $
KGED 102354Z AUTO 21004KT 10SM CLR M01/M04 A3010 RMK AO2 SLP191 T10111044 10044 21017 53014 $
KGED 102254Z AUTO 00000KT 10SM CLR M01/M04 A3008 RMK AO2 SLP185 T10061039 $
KGED 102154Z AUTO 20003KT 10SM FEW045 02/M04 A3006 RMK AO2 SLP180 T00171044 $
KGED 102054Z AUTO 26005KT 10SM CLR 03/M04 A3006 RMK AO2 SLP178 T00331044 53005 $
KGED 101954Z AUTO 26009KT 10SM CLR 04/M04 A3004 RMK AO2 SLP174 T00391044 $
KGED 101854Z AUTO 26009G18KT 10SM 04/M04 A3004 RMK AO2 SLP172 T00391044 $
KGED 101754Z AUTO 27006G14KT 10SM 04/M04 A3004 RMK AO2 SLP173 T00391039 10039 21028 58005 $
KGED 101654Z AUTO 26008KT 10SM 04/M03 A3005 RMK AO2 SLP177 T00391028 $
KGED 101554Z AUTO 27005KT 10SM FEW002 03/M02 A3006 RMK AO2 SLP181 T00281022
KGED 101454Z AUTO 27005KT 10SM CLR 01/M02 A3006 RMK AO2 SLP178 T00111022 51023
KGED 101354Z AUTO 24004KT 10SM CLR 00/M03 A3004 RMK AO2 SLP171 T00001028
KGED 101254Z AUTO 24004KT 9SM CLR M02/M03 A3001 RMK AO2 SLP163 T10171033
KGED 101154Z AUTO 25003KT 8SM FEW110 M02/M04 A2999 RMK AO2 SLP156 70026 T10221039 10000 21022 53034
KGED 101054Z AUTO 27005KT 8SM CLR M01/M03 A2995 RMK AO2 SLP142 T10111028
KGED 100954Z AUTO 26005KT 5SM BR CLR M01/M02 A2991 RMK AO2 SLP130 T10111022
KGED 100854Z AUTO 26004KT 6SM BR CLR M01/M02 A2989 RMK AO2 SLP121 T10061022 53016
KGED 100754Z AUTO 27005KT 5SM BR FEW080 M01/M02 A2987 RMK AO2 SLP116 T10061022
KGED 100654Z AUTO 28004KT 5SM BR FEW065 OVC085 M01/M02 A2985 RMK AO2 SLP108 T10061017
KGED 100624Z AUTO 28004KT 5SM BR SCT006 OVC065 00/M02 A2984 RMK AO2 T00001017
KGED 100554Z AUTO 28006KT 6SM BR BKN007 OVC050 00/M02 A2984 RMK AO2 SLP105 60006 T00001017 10000 21006 50006
KGED 100552Z AUTO 29006KT 6SM BR BKN007 OVC050 00/M02 A2984 RMK AO2
KGED 100527Z AUTO 30006KT 8SM SCT008 OVC046 00/M02 A2984 RMK AO2 T00001017
KGED 100510Z AUTO 29006KT 8SM BKN008 OVC037 M01/M02 A2983 RMK AO2 T10061017
KGED 100501Z AUTO 29007KT 7SM SCT009 OVC037 M01/M02 A2983 RMK AO2 T10061017
KGED 100454Z AUTO 29005KT 7SM BKN037 OVC065 M01/M02 A2983 RMK AO2 SLP101 T10061017 400111006
KGED 100432Z AUTO 30006KT 6SM BR FEW007 BKN036 OVC065 M01/M02 A2983 RMK AO2 T10061017
KGED 100354Z AUTO 29007KT 5SM BR OVC007 M01/M02 A2982 RMK AO2 SNE33 SLP099 P0000 T10061017
KGED 100327Z AUTO 31004KT 3SM -SN BR OVC007 M01/M02 A2981 RMK AO2 P0000 T10061017
KGED 100315Z AUTO VRB05KT 2 1/2SM -SN BR BKN006 OVC015 M01/M02 A2981 RMK AO2 P0000 T10061017
KGED 100254Z AUTO 29006KT 1 1/4SM -SN BR BKN006 OVC010 M01/M02 A2980 RMK AO2 SLP093 P0002 60006 T10061017 53005
KGED 100247Z AUTO 30006KT 1 3/4SM -SN BR BKN006 OVC023 M01/M02 A2980 RMK AO2 P0001 T10061017
KGED 100227Z AUTO 32004KT 2 1/2SM -SN BR BKN006 OVC031 M01/M02 A2979 RMK AO2 P0001 T10061017
KGED 100220Z AUTO 30004KT 1 3/4SM -SN BR BKN006 OVC018 M01/M02 A2979 RMK AO2 P0001 T10061017
KGED 100158Z AUTO 29005KT 2SM -SN BR BKN005 OVC022 M01/M02 A2980 RMK AO2 P0001 T10061017
KGED 100154Z AUTO 30005KT 1 3/4SM -SN BR SCT005 OVC022 M01/M02 A2979 RMK AO2 SLP088 P0002 T10061017
KGED 100136Z AUTO 30004KT 1 1/4SM -SN BR FEW005 OVC016 M01/M02 A2979 RMK AO2 P0002 T10061017
KGED 100124Z AUTO 30004KT 1SM -SN BR FEW005 OVC014 M01/M02 A2979 RMK AO2 P0002 T10061017